Time,TemperatureF,DewpointF,PressureIn,WindDirection,WindDirectionDegrees,WindSpeedMPH,WindSpeedGustMPH,Humidity,HourlyPrecipIn,Conditions,Clouds,dailyrainin,SoftwareType,DateUTC
2013-06-30 00:00:00,80.8,48.2,28.11,NNE,22,0.0,0.0,32,0.00,,---,0.00,VWS V14.01,2013-06-30 07:00:00,
2013-06-30 00:06:00,81.0,48.4,28.11,North,0,0.0,0.0,32,0.00,,---,0.00,VWS V14.01,2013-06-30 07:06:00,
2013-06-30 00:11:00,80.8,48.2,28.11,North,0,0.0,0.0,32,0.00,,---,0.00,VWS V14.01,2013-06-30 07:11:00,
2013-06-30 00:17:00,80.6,48.0,28.08,North,0,0.0,0.0,32,0.00,,---,0.00,VWS V14.01,2013-06-30 07:17:00,
2013-06-30 00:22:00,80.4,47.9,28.08,North,0,0.0,0.0,32,0.00,,---,0.00,VWS V14.01,2013-06-30 07:22:00,
2013-06-30 00:27:00,80.2,47.7,28.08,North,0,0.0,0.0,32,0.00,,---,0.00,VWS V14.01,2013-06-30 07:27:00,
2013-06-30 00:33:00,80.2,48.5,28.11,North,0,0.0,0.0,33,0.00,,---,0.00,VWS V14.01,2013-06-30 07:33:00,
2013-06-30 00:38:00,80.2,48.5,28.11,NNW,338,0.0,0.0,33,0.00,,---,0.00,VWS V14.01,2013-06-30 07:38:00,
2013-06-30 00:43:00,80.2,49.3,28.11,NNW,338,0.0,0.0,34,0.00,,---,0.00,VWS V14.01,2013-06-30 07:43:00,
2013-06-30 00:48:00,80.1,49.2,28.08,NNW,338,0.0,0.0,34,0.00,,---,0.00,VWS V14.01,2013-06-30 07:48:00,
2013-06-30 00:53:00,80.1,49.2,28.08,NNW,338,0.0,0.0,34,0.00,,---,0.00,VWS V14.01,2013-06-30 07:53:00,
2013-06-30 00:58:00,80.1,50.0,28.08,NNW,338,0.0,0.0,35,0.00,,---,0.00,VWS V14.01,2013-06-30 07:58:00,
2013-06-30 01:04:00,80.1,50.7,28.08,North,0,0.0,0.0,36,0.00,,---,0.00,VWS V14.01,2013-06-30 08:04:00,
2013-06-30 01:09:00,80.1,50.7,28.08,NNE,22,0.0,0.0,36,0.00,,---,0.00,VWS V14.01,2013-06-30 08:09:00,
2013-06-30 01:15:00,80.6,51.2,28.05,NNE,22,0.0,0.0,36,0.00,,---,0.00,VWS V14.01,2013-06-30 08:15:00,
2013-06-30 01:21:00,80.6,51.2,28.05,North,0,0.0,0.0,36,0.00,,---,0.00,VWS V14.01,2013-06-30 08:21:00,
2013-06-30 01:26:00,80.4,51.0,28.05,North,0,0.0,0.0,36,0.00,,---,0.00,VWS V14.01,2013-06-30 08:26:00,
2013-06-30 01:31:00,80.2,50.9,28.05,North,0,0.0,0.0,36,0.00,,---,0.00,VWS V14.01,2013-06-30 08:31:00,
2013-06-30 01:36:00,80.2,50.9,28.05,North,0,0.0,0.0,36,0.00,,---,0.00,VWS V14.01,2013-06-30 08:36:00,
2013-06-30 01:41:00,80.2,50.1,28.05,North,0,0.0,0.0,35,0.00,,---,0.00,VWS V14.01,2013-06-30 08:41:00,
2013-06-30 01:46:00,80.2,49.3,28.08,NNW,338,0.0,0.0,34,0.00,,---,0.00,VWS V14.01,2013-06-30 08:46:00,
2013-06-30 01:51:00,79.9,49.0,28.08,NNW,338,0.0,0.0,34,0.00,,---,0.00,VWS V14.01,2013-06-30 08:51:00,
2013-06-30 01:57:00,79.9,48.2,28.08,NNW,338,0.0,0.0,33,0.00,,---,0.00,VWS V14.01,2013-06-30 08:57:00,
2013-06-30 02:03:00,79.7,48.1,28.11,NNW,338,0.0,0.0,33,0.00,,---,0.00,VWS V14.01,2013-06-30 09:03:00,
2013-06-30 02:08:00,79.7,47.3,28.11,NNW,338,0.0,0.0,32,0.00,,---,0.00,VWS V14.01,2013-06-30 09:08:00,
2013-06-30 02:14:00,79.5,47.9,28.11,North,0,0.0,0.0,33,0.00,,---,0.00,VWS V14.01,2013-06-30 09:14:00,
2013-06-30 02:19:00,79.3,47.8,28.08,NNW,338,0.0,0.0,33,0.00,,---,0.00,VWS V14.01,2013-06-30 09:19:00,
2013-06-30 02:25:00,79.5,48.7,28.08,North,0,0.0,0.0,34,0.00,,---,0.00,VWS V14.01,2013-06-30 09:25:00,
2013-06-30 02:30:00,79.7,48.9,28.08,North,0,0.0,0.0,34,0.00,,---,0.00,VWS V14.01,2013-06-30 09:30:00,
2013-06-30 02:35:00,79.5,49.5,28.08,North,0,0.0,0.0,35,0.00,,---,0.00,VWS V14.01,2013-06-30 09:35:00,
2013-06-30 02:40:00,79.2,49.2,28.08,NNE,22,0.0,0.0,35,0.00,,---,0.00,VWS V14.01,2013-06-30 09:40:00,
2013-06-30 02:46:00,79.7,49.7,28.08,North,0,0.0,0.0,35,0.00,,---,0.00,VWS V14.01,2013-06-30 09:46:00,
2013-06-30 02:51:00,80.4,50.3,28.08,North,0,0.0,0.0,35,0.00,,---,0.00,VWS V14.01,2013-06-30 09:51:00,
2013-06-30 02:56:00,80.2,49.3,28.08,North,0,0.0,0.0,34,0.00,,---,0.00,VWS V14.01,2013-06-30 09:56:00,
2013-06-30 03:01:00,80.2,50.1,28.05,North,0,2.5,2.5,35,0.00,,---,0.00,VWS V14.01,2013-06-30 10:01:00,
2013-06-30 03:07:00,80.1,50.0,28.05,North,0,2.0,3.1,35,0.00,,---,0.00,VWS V14.01,2013-06-30 10:07:00,
2013-06-30 03:12:00,79.7,50.4,28.05,NNE,22,2.7,2.7,36,0.00,,---,0.00,VWS V14.01,2013-06-30 10:12:00,
2013-06-30 03:17:00,79.5,51.0,28.05,North,0,0.0,0.0,37,0.00,,---,0.00,VWS V14.01,2013-06-30 10:17:00,
2013-06-30 03:22:00,79.3,50.1,28.05,NNE,22,0.0,0.0,36,0.00,,---,0.00,VWS V14.01,2013-06-30 10:22:00,
2013-06-30 03:28:00,79.0,49.0,28.05,North,0,0.0,0.0,35,0.00,,---,0.00,VWS V14.01,2013-06-30 10:28:00,
2013-06-30 03:34:00,78.8,48.9,28.05,North,0,0.0,0.0,35,0.00,,---,0.00,VWS V14.01,2013-06-30 10:34:00,
2013-06-30 03:39:00,78.4,50.0,28.05,North,0,0.0,0.0,37,0.00,,---,0.00,VWS V14.01,2013-06-30 10:39:00,
2013-06-30 03:44:00,78.1,49.0,28.05,North,0,0.0,0.0,36,0.00,,---,0.00,VWS V14.01,2013-06-30 10:44:00,
2013-06-30 03:50:00,78.4,49.3,28.08,NNW,338,0.0,0.0,36,0.00,,---,0.00,VWS V14.01,2013-06-30 10:50:00,
2013-06-30 03:56:00,78.6,48.7,28.08,NNW,338,0.0,0.0,35,0.00,,---,0.00,VWS V14.01,2013-06-30 10:56:00,
2013-06-30 04:01:00,78.6,47.9,28.08,NNW,338,0.0,0.0,34,0.00,,---,0.00,VWS V14.01,2013-06-30 11:01:00,
2013-06-30 04:06:00,78.6,48.7,28.08,NNW,338,0.0,0.0,35,0.00,,---,0.00,VWS V14.01,2013-06-30 11:06:00,
2013-06-30 04:11:00,78.8,48.9,28.08,NNW,338,0.0,0.0,35,0.00,,---,0.00,VWS V14.01,2013-06-30 11:11:00,
2013-06-30 04:17:00,78.8,48.1,28.08,NNW,338,0.0,0.0,34,0.00,,---,0.00,VWS V14.01,2013-06-30 11:17:00,
2013-06-30 04:23:00,79.0,48.2,28.08,NNW,338,0.0,0.0,34,0.00,,---,0.00,VWS V14.01,2013-06-30 11:23:00,
2013-06-30 04:28:00,78.8,48.1,28.08,NNW,338,0.0,0.0,34,0.00,,---,0.00,VWS V14.01,2013-06-30 11:28:00,
2013-06-30 04:34:00,78.6,48.7,28.08,NNW,338,0.0,0.0,35,0.00,,---,0.00,VWS V14.01,2013-06-30 11:34:00,
2013-06-30 04:39:00,78.6,48.7,28.08,NNW,338,0.0,0.0,35,0.00,,---,0.00,VWS V14.01,2013-06-30 11:39:00,
2013-06-30 04:45:00,78.6,49.5,28.08,North,0,0.0,0.0,36,0.00,,---,0.00,VWS V14.01,2013-06-30 11:45:00,
2013-06-30 04:51:00,78.4,48.5,28.08,NNW,338,0.0,0.0,35,0.00,,---,0.00,VWS V14.01,2013-06-30 11:51:00,
2013-06-30 04:56:00,78.4,49.3,28.08,NNW,338,0.0,0.0,36,0.00,,---,0.00,VWS V14.01,2013-06-30 11:56:00,
2013-06-30 05:02:00,78.4,48.5,28.08,NNW,338,0.0,0.0,35,0.00,,---,0.00,VWS V14.01,2013-06-30 12:02:00,
2013-06-30 05:07:00,78.4,48.5,28.08,NW,315,0.0,0.0,35,0.00,,---,0.00,VWS V14.01,2013-06-30 12:07:00,
2013-06-30 05:13:00,78.4,48.5,28.08,North,0,0.0,0.0,35,0.00,,---,0.00,VWS V14.01,2013-06-30 12:13:00,
2013-06-30 05:18:00,78.4,48.5,28.08,NNW,338,0.0,0.0,35,0.00,,---,0.00,VWS V14.01,2013-06-30 12:18:00,
2013-06-30 05:23:00,78.6,49.5,28.08,North,0,0.0,0.0,36,0.00,,---,0.00,VWS V14.01,2013-06-30 12:23:00,
2013-06-30 05:29:00,78.8,49.6,28.08,North,0,2.7,2.7,36,0.00,,---,0.00,VWS V14.01,2013-06-30 12:29:00,
2013-06-30 05:34:00,79.0,49.8,28.08,North,0,2.0,2.7,36,0.00,,---,0.00,VWS V14.01,2013-06-30 12:34:00,
2013-06-30 05:40:00,79.0,49.8,28.08,North,0,3.1,3.1,36,0.00,,---,0.00,VWS V14.01,2013-06-30 12:40:00,
2013-06-30 05:45:00,79.2,50.7,28.11,North,0,2.5,2.9,37,0.00,,---,0.00,VWS V14.01,2013-06-30 12:45:00,
2013-06-30 05:50:00,79.3,50.8,28.11,North,0,2.5,2.9,37,0.00,,---,0.00,VWS V14.01,2013-06-30 12:50:00,
2013-06-30 05:55:00,79.5,50.2,28.11,North,0,2.9,2.9,36,0.00,,---,0.00,VWS V14.01,2013-06-30 12:55:00,
2013-06-30 06:00:00,79.7,50.4,28.08,North,0,2.7,2.9,36,0.00,,---,0.00,VWS V14.01,2013-06-30 13:00:00,
2013-06-30 06:05:00,79.7,48.9,28.08,North,0,2.0,2.7,34,0.00,,---,0.00,VWS V14.01,2013-06-30 13:05:00,
2013-06-30 06:10:00,79.5,48.7,28.08,NNW,338,2.5,2.5,34,0.00,,---,0.00,VWS V14.01,2013-06-30 13:10:00,
2013-06-30 06:16:00,79.2,48.4,28.08,North,0,2.7,2.9,34,0.00,,---,0.00,VWS V14.01,2013-06-30 13:16:00,
2013-06-30 06:22:00,79.0,47.5,28.08,North,0,0.0,0.0,33,0.00,,---,0.00,VWS V14.01,2013-06-30 13:22:00,
2013-06-30 06:27:00,79.5,47.9,28.08,North,0,2.5,2.5,33,0.00,,---,0.00,VWS V14.01,2013-06-30 13:27:00,
2013-06-30 06:32:00,79.7,48.1,28.08,North,0,2.5,2.9,33,0.00,,---,0.00,VWS V14.01,2013-06-30 13:32:00,
2013-06-30 06:37:00,80.2,50.1,28.08,North,0,3.1,3.4,35,0.00,,---,0.00,VWS V14.01,2013-06-30 13:37:00,
2013-06-30 06:43:00,77.7,54.7,28.08,NNE,22,0.0,0.0,45,0.00,,---,0.00,VWS V14.01,2013-06-30 13:43:00,
2013-06-30 06:49:00,78.8,51.8,28.08,North,0,0.0,2.2,39,0.00,,---,0.00,VWS V14.01,2013-06-30 13:49:00,
2013-06-30 06:55:00,81.5,52.0,28.08,North,0,2.9,2.9,36,0.00,,---,0.00,VWS V14.01,2013-06-30 13:55:00,
2013-06-30 07:01:00,82.6,50.6,28.08,North,0,0.0,0.0,33,0.00,,---,0.00,VWS V14.01,2013-06-30 14:01:00,
2013-06-30 07:06:00,83.7,51.5,28.08,NNW,338,0.0,0.0,33,0.00,,---,0.00,VWS V14.01,2013-06-30 14:06:00,
2013-06-30 07:12:00,84.6,50.6,28.08,NNW,338,0.0,0.0,31,0.00,,---,0.00,VWS V14.01,2013-06-30 14:12:00,
2013-06-30 07:18:00,85.8,51.7,28.08,NNW,338,0.0,0.0,31,0.00,,---,0.00,VWS V14.01,2013-06-30 14:18:00,
2013-06-30 07:23:00,86.7,52.5,28.08,NNW,338,0.0,0.0,31,0.00,,---,0.00,VWS V14.01,2013-06-30 14:23:00,
2013-06-30 07:29:00,87.4,52.2,28.08,NNW,338,0.0,0.0,30,0.00,,---,0.00,VWS V14.01,2013-06-30 14:29:00,
2013-06-30 07:34:00,88.2,52.8,28.05,NNW,338,0.0,0.0,30,0.00,,---,0.00,VWS V14.01,2013-06-30 14:34:00,
2013-06-30 07:40:00,89.4,53.9,28.05,North,0,0.0,0.0,30,0.00,,---,0.00,VWS V14.01,2013-06-30 14:40:00,
2013-06-30 07:46:00,90.0,51.5,28.08,North,0,0.0,0.0,27,0.00,,---,0.00,VWS V14.01,2013-06-30 14:46:00,
2013-06-30 07:51:00,90.7,50.1,28.08,SE,135,0.0,0.0,25,0.00,,---,0.00,VWS V14.01,2013-06-30 14:51:00,
2013-06-30 07:57:00,91.0,53.4,28.08,SE,135,0.0,0.0,28,0.00,,---,0.00,VWS V14.01,2013-06-30 14:57:00,
2013-06-30 08:02:00,92.3,52.5,28.08,ESE,112,0.0,0.0,26,0.00,,---,0.00,VWS V14.01,2013-06-30 15:02:00,
2013-06-30 08:08:00,93.9,50.5,28.08,ESE,112,0.0,0.0,23,0.00,,---,0.00,VWS V14.01,2013-06-30 15:08:00,
2013-06-30 08:13:00,95.0,47.7,28.08,ENE,68,0.0,0.0,20,0.00,,---,0.00,VWS V14.01,2013-06-30 15:13:00,
2013-06-30 08:19:00,95.0,46.3,28.08,SE,135,0.0,0.0,19,0.00,,---,0.00,VWS V14.01,2013-06-30 15:19:00,
2013-06-30 08:24:00,95.2,46.5,28.08,SE,135,0.0,0.0,19,0.00,,---,0.00,VWS V14.01,2013-06-30 15:24:00,
2013-06-30 08:30:00,96.3,44.4,28.08,SE,135,0.0,0.0,17,0.00,,---,0.00,VWS V14.01,2013-06-30 15:30:00,
2013-06-30 08:36:00,96.6,44.7,28.08,SSE,158,1.3,2.7,17,0.00,,---,0.00,VWS V14.01,2013-06-30 15:36:00,
2013-06-30 08:41:00,97.2,45.1,28.08,SSE,158,2.0,2.0,17,0.00,,---,0.00,VWS V14.01,2013-06-30 15:41:00,
2013-06-30 08:47:00,97.7,45.6,28.11,SSE,158,0.0,0.0,17,0.00,,---,0.00,VWS V14.01,2013-06-30 15:47:00,
2013-06-30 08:52:00,98.4,44.5,28.11,SSE,158,0.0,0.0,16,0.00,,---,0.00,VWS V14.01,2013-06-30 15:52:00,
2013-06-30 08:57:00,99.3,45.3,28.11,SE,135,0.0,0.0,16,0.00,,---,0.00,VWS V14.01,2013-06-30 15:57:00,
2013-06-30 09:02:00,99.3,45.3,28.11,SE,135,1.6,1.6,16,0.00,,---,0.00,VWS V14.01,2013-06-30 16:02:00,
2013-06-30 09:08:00,99.5,43.7,28.11,SE,135,0.0,0.0,15,0.00,,---,0.00,VWS V14.01,2013-06-30 16:08:00,
2013-06-30 09:13:00,99.3,39.9,28.11,SSE,158,0.0,1.3,13,0.00,,---,0.00,VWS V14.01,2013-06-30 16:13:00,
2013-06-30 09:18:00,99.5,43.7,28.08,SSE,158,0.0,2.7,15,0.00,,---,0.00,VWS V14.01,2013-06-30 16:18:00,
2013-06-30 09:24:00,100.4,38.7,28.08,SSE,158,3.6,3.6,12,0.00,,---,0.00,VWS V14.01,2013-06-30 16:24:00,
2013-06-30 09:29:00,101.1,39.2,28.08,SSE,158,2.2,2.2,12,0.00,,---,0.00,VWS V14.01,2013-06-30 16:29:00,
2013-06-30 09:35:00,101.8,39.8,28.08,SSE,158,0.0,0.0,12,0.00,,---,0.00,VWS V14.01,2013-06-30 16:35:00,
2013-06-30 09:40:00,102.4,40.2,28.08,SSE,158,0.0,0.0,12,0.00,,---,0.00,VWS V14.01,2013-06-30 16:40:00,
2013-06-30 09:46:00,103.3,40.9,28.08,SSE,158,0.0,0.0,12,0.00,,---,0.00,VWS V14.01,2013-06-30 16:46:00,
2013-06-30 09:51:00,103.5,33.7,28.08,SSE,158,2.2,2.2,9,0.00,,---,0.00,VWS V14.01,2013-06-30 16:51:00,
2013-06-30 09:57:00,101.7,35.0,28.08,SSW,202,0.0,2.5,10,0.00,,---,0.00,VWS V14.01,2013-06-30 16:57:00,
2013-06-30 10:02:00,101.3,39.3,28.08,South,180,3.1,4.7,12,0.00,,---,0.00,VWS V14.01,2013-06-30 17:02:00,
2013-06-30 10:08:00,100.2,40.6,28.08,SW,225,1.6,4.0,13,0.00,,---,0.00,VWS V14.01,2013-06-30 17:08:00,
2013-06-30 10:13:00,99.9,40.3,28.08,SSE,158,4.0,5.8,13,0.00,,---,0.00,VWS V14.01,2013-06-30 17:13:00,
2013-06-30 10:18:00,99.7,40.2,28.08,South,180,4.0,5.8,13,0.00,,---,0.00,VWS V14.01,2013-06-30 17:18:00,
2013-06-30 10:24:00,99.3,39.9,28.08,South,180,3.6,5.4,13,0.00,,---,0.00,VWS V14.01,2013-06-30 17:24:00,
2013-06-30 10:29:00,100.0,40.4,28.08,SSW,202,8.1,8.1,13,0.00,,---,0.00,VWS V14.01,2013-06-30 17:29:00,
2013-06-30 10:35:00,99.5,40.0,28.08,SE,135,2.5,6.0,13,0.00,,---,0.00,VWS V14.01,2013-06-30 17:35:00,
2013-06-30 10:40:00,99.9,40.3,28.08,SSW,202,3.6,7.2,13,0.00,,---,0.00,VWS V14.01,2013-06-30 17:40:00,
2013-06-30 10:46:00,99.9,33.6,28.08,SSE,158,5.8,6.5,10,0.00,,---,0.00,VWS V14.01,2013-06-30 17:46:00,
2013-06-30 10:51:00,100.4,34.0,28.08,WSW,248,3.1,5.6,10,0.00,,---,0.00,VWS V14.01,2013-06-30 17:51:00,
2013-06-30 10:57:00,101.1,34.6,28.08,SSW,202,3.6,9.6,10,0.00,,---,0.00,VWS V14.01,2013-06-30 17:57:00,
2013-06-30 11:02:00,100.8,34.3,28.08,South,180,0.0,3.4,10,0.00,,---,0.00,VWS V14.01,2013-06-30 18:02:00,
2013-06-30 11:07:00,101.1,34.6,28.08,South,180,3.8,5.6,10,0.00,,---,0.00,VWS V14.01,2013-06-30 18:07:00,
2013-06-30 11:12:00,101.3,39.3,28.08,South,180,7.2,7.2,12,0.00,,---,0.00,VWS V14.01,2013-06-30 18:12:00,
2013-06-30 11:18:00,101.3,39.3,28.08,South,180,5.4,6.3,12,0.00,,---,0.00,VWS V14.01,2013-06-30 18:18:00,
2013-06-30 11:24:00,99.5,40.0,28.08,South,180,6.5,7.4,13,0.00,,---,0.00,VWS V14.01,2013-06-30 18:24:00,
2013-06-30 11:29:00,98.1,44.3,28.08,SSW,202,7.2,7.4,16,0.00,,---,0.00,VWS V14.01,2013-06-30 18:29:00,
2013-06-30 11:35:00,96.6,44.7,28.08,WSW,248,8.7,8.7,17,0.00,,---,0.00,VWS V14.01,2013-06-30 18:35:00,
2013-06-30 11:41:00,95.5,43.8,28.08,SW,225,2.9,7.4,17,0.00,,---,0.00,VWS V14.01,2013-06-30 18:41:00,
2013-06-30 11:46:00,95.5,45.3,28.08,SW,225,5.6,8.7,18,0.00,,---,0.00,VWS V14.01,2013-06-30 18:46:00,
2013-06-30 11:52:00,97.0,45.0,28.08,SSE,158,5.4,8.5,17,0.00,,---,0.00,VWS V14.01,2013-06-30 18:52:00,
2013-06-30 11:57:00,97.5,46.9,28.08,South,180,6.5,6.5,18,0.00,,---,0.00,VWS V14.01,2013-06-30 18:57:00,
2013-06-30 12:03:00,97.7,45.6,28.08,SW,225,7.4,10.1,17,0.00,,---,0.00,VWS V14.01,2013-06-30 19:03:00,
2013-06-30 12:08:00,97.5,43.8,28.08,West,270,6.0,12.3,16,0.00,,---,0.00,VWS V14.01,2013-06-30 19:08:00,
2013-06-30 12:14:00,98.2,44.4,28.08,WSW,248,5.6,8.7,16,0.00,,---,0.00,VWS V14.01,2013-06-30 19:14:00,
2013-06-30 12:20:00,96.4,44.6,28.08,South,180,6.0,12.5,17,0.00,,---,0.00,VWS V14.01,2013-06-30 19:20:00,
2013-06-30 12:25:00,97.3,45.3,28.08,SW,225,6.3,6.3,17,0.00,,---,0.00,VWS V14.01,2013-06-30 19:25:00,
2013-06-30 12:31:00,96.6,44.7,28.08,South,180,10.7,10.7,17,0.00,,---,0.00,VWS V14.01,2013-06-30 19:31:00,
2013-06-30 12:37:00,96.4,44.6,28.08,SSW,202,5.6,10.5,17,0.00,,---,0.00,VWS V14.01,2013-06-30 19:37:00,
2013-06-30 12:42:00,96.8,44.8,28.08,SSW,202,5.4,7.6,17,0.00,,---,0.00,VWS V14.01,2013-06-30 19:42:00,
2013-06-30 12:47:00,96.8,44.8,28.08,West,270,8.1,8.5,17,0.00,,---,0.00,VWS V14.01,2013-06-30 19:47:00,
2013-06-30 12:52:00,97.2,45.1,28.08,WSW,248,5.4,8.7,17,0.00,,---,0.00,VWS V14.01,2013-06-30 19:52:00,
2013-06-30 12:57:00,98.2,46.0,28.08,SSW,202,4.0,5.6,17,0.00,,---,0.00,VWS V14.01,2013-06-30 19:57:00,
2013-06-30 13:02:00,97.9,45.7,28.08,WSW,248,3.8,6.9,17,0.00,,---,0.00,VWS V14.01,2013-06-30 20:02:00,
2013-06-30 13:07:00,96.8,44.8,28.08,WSW,248,9.8,9.8,17,0.00,,---,0.00,VWS V14.01,2013-06-30 20:07:00,
2013-06-30 13:12:00,95.9,44.1,28.08,SW,225,5.4,7.8,17,0.00,,---,0.00,VWS V14.01,2013-06-30 20:12:00,
2013-06-30 13:17:00,95.4,43.7,28.08,SW,225,5.6,9.4,17,0.00,,---,0.00,VWS V14.01,2013-06-30 20:17:00,
2013-06-30 13:23:00,96.1,44.3,28.08,WSW,248,8.7,8.7,17,0.00,,---,0.00,VWS V14.01,2013-06-30 20:23:00,
2013-06-30 13:28:00,95.7,44.0,28.08,WSW,248,7.2,11.0,17,0.00,,---,0.00,VWS V14.01,2013-06-30 20:28:00,
2013-06-30 13:33:00,95.9,44.1,28.08,SSW,202,5.8,6.5,17,0.00,,---,0.00,VWS V14.01,2013-06-30 20:33:00,
2013-06-30 13:38:00,94.8,44.8,28.08,WSW,248,4.9,10.7,18,0.00,,---,0.00,VWS V14.01,2013-06-30 20:38:00,
2013-06-30 13:43:00,95.2,43.5,28.08,SW,225,6.3,12.5,17,0.00,,---,0.00,VWS V14.01,2013-06-30 20:43:00,
2013-06-30 13:48:00,94.6,44.6,28.08,SSW,202,8.5,11.2,18,0.00,,---,0.00,VWS V14.01,2013-06-30 20:48:00,
2013-06-30 13:53:00,94.3,44.3,28.08,WSW,248,7.2,9.2,18,0.00,,---,0.00,VWS V14.01,2013-06-30 20:53:00,
2013-06-30 13:59:00,94.8,46.2,28.08,SW,225,10.7,10.7,19,0.00,,---,0.00,VWS V14.01,2013-06-30 20:59:00,
2013-06-30 14:04:00,95.0,46.3,28.05,WSW,248,7.4,10.7,19,0.00,,---,0.00,VWS V14.01,2013-06-30 21:04:00,
2013-06-30 14:09:00,95.2,46.5,28.05,WSW,248,10.3,10.3,19,0.00,,---,0.00,VWS V14.01,2013-06-30 21:09:00,
2013-06-30 14:14:00,93.7,45.3,28.05,WSW,248,9.2,13.0,19,0.00,,---,0.00,VWS V14.01,2013-06-30 21:14:00,
2013-06-30 14:19:00,93.2,47.5,28.05,WSW,248,7.8,14.5,21,0.00,,---,0.00,VWS V14.01,2013-06-30 21:19:00,
2013-06-30 14:24:00,92.3,48.0,28.05,WSW,248,7.6,9.8,22,0.00,,---,0.00,VWS V14.01,2013-06-30 21:24:00,
2013-06-30 14:29:00,91.8,48.7,28.05,WSW,248,11.2,11.2,23,0.00,,---,0.00,VWS V14.01,2013-06-30 21:29:00,
2013-06-30 14:34:00,91.4,49.6,28.05,WSW,248,7.2,11.0,24,0.00,,---,0.00,VWS V14.01,2013-06-30 21:34:00,
2013-06-30 14:39:00,91.0,51.4,28.05,WSW,248,8.7,9.0,26,0.00,,---,0.00,VWS V14.01,2013-06-30 21:39:00,
2013-06-30 14:44:00,90.1,51.7,28.05,WSW,248,8.5,8.5,27,0.00,,---,0.00,VWS V14.01,2013-06-30 21:44:00,
2013-06-30 14:49:00,90.1,52.7,28.08,West,270,10.3,10.3,28,0.00,,---,0.00,VWS V14.01,2013-06-30 21:49:00,
2013-06-30 14:54:00,90.1,52.7,28.08,SSW,202,8.5,8.5,28,0.00,,---,0.00,VWS V14.01,2013-06-30 21:54:00,
2013-06-30 14:59:00,89.8,52.4,28.08,West,270,3.6,7.6,28,0.00,,---,0.00,VWS V14.01,2013-06-30 21:59:00,
2013-06-30 15:04:00,89.8,52.4,28.08,WSW,248,7.6,8.5,28,0.00,,---,0.00,VWS V14.01,2013-06-30 22:04:00,
2013-06-30 15:09:00,89.6,53.2,28.08,WSW,248,8.7,11.0,29,0.00,,---,0.00,VWS V14.01,2013-06-30 22:09:00,
2013-06-30 15:14:00,89.6,52.2,28.08,SW,225,8.1,11.0,28,0.00,,---,0.00,VWS V14.01,2013-06-30 22:14:00,
2013-06-30 15:19:00,90.1,52.7,28.08,SW,225,7.6,15.4,28,0.00,,---,0.00,VWS V14.01,2013-06-30 22:19:00,
2013-06-30 15:24:00,90.7,53.1,28.08,WSW,248,5.6,10.1,28,0.00,,---,0.00,VWS V14.01,2013-06-30 22:24:00,
2013-06-30 15:29:00,90.7,52.1,28.08,WSW,248,12.3,12.3,27,0.00,,---,0.00,VWS V14.01,2013-06-30 22:29:00,
2013-06-30 15:35:00,90.9,52.3,28.05,SW,225,6.3,7.8,27,0.00,,---,0.00,VWS V14.01,2013-06-30 22:35:00,
2013-06-30 15:40:00,91.0,53.4,28.05,SSW,202,7.4,8.1,28,0.00,,---,0.00,VWS V14.01,2013-06-30 22:40:00,
2013-06-30 15:45:00,91.0,54.4,28.05,SSW,202,5.4,6.0,29,0.00,,---,0.00,VWS V14.01,2013-06-30 22:45:00,
2013-06-30 15:50:00,90.1,52.7,28.05,WSW,248,9.8,10.5,28,0.00,,---,0.00,VWS V14.01,2013-06-30 22:50:00,
2013-06-30 15:55:00,89.1,52.7,28.05,WSW,248,6.3,9.4,29,0.00,,---,0.00,VWS V14.01,2013-06-30 22:55:00,
2013-06-30 16:00:00,88.5,52.2,28.05,WSW,248,10.3,11.0,29,0.00,,---,0.00,VWS V14.01,2013-06-30 23:00:00,
2013-06-30 16:05:00,88.5,54.1,28.05,WSW,248,7.4,9.6,31,0.00,,---,0.00,VWS V14.01,2013-06-30 23:05:00,
2013-06-30 16:10:00,87.8,53.4,28.05,WSW,248,8.1,9.8,31,0.00,,---,0.00,VWS V14.01,2013-06-30 23:10:00,
2013-06-30 16:15:00,87.8,55.2,28.05,SSW,202,5.6,10.3,33,0.00,,---,0.00,VWS V14.01,2013-06-30 23:15:00,
2013-06-30 16:20:00,87.3,54.7,28.05,SSW,202,9.0,9.0,33,0.00,,---,0.00,VWS V14.01,2013-06-30 23:20:00,
2013-06-30 16:25:00,87.1,54.5,28.05,WSW,248,3.8,7.4,33,0.00,,---,0.00,VWS V14.01,2013-06-30 23:25:00,
2013-06-30 16:30:00,86.2,54.5,28.05,WSW,248,7.6,8.1,34,0.00,,---,0.00,VWS V14.01,2013-06-30 23:30:00,
2013-06-30 16:35:00,85.3,55.3,28.05,SW,225,8.7,9.6,36,0.00,,---,0.00,VWS V14.01,2013-06-30 23:35:00,
2013-06-30 16:40:00,84.6,55.5,28.05,SW,225,8.1,8.1,37,0.00,,---,0.00,VWS V14.01,2013-06-30 23:40:00,
2013-06-30 16:45:00,84.6,56.9,28.05,WSW,248,6.3,6.3,39,0.00,,---,0.00,VWS V14.01,2013-06-30 23:45:00,
2013-06-30 16:50:00,84.2,56.6,28.05,SSW,202,7.8,7.8,39,0.00,,---,0.00,VWS V14.01,2013-06-30 23:50:00,
2013-06-30 16:55:00,84.6,58.3,28.05,SSW,202,6.0,6.0,41,0.00,,---,0.00,VWS V14.01,2013-06-30 23:55:00,
2013-06-30 17:00:00,82.8,57.3,28.08,SW,225,6.0,8.5,42,0.00,,---,0.00,VWS V14.01,2013-07-01 00:00:00,
2013-06-30 17:05:00,82.4,57.7,28.08,SW,225,8.1,8.1,43,0.00,,---,0.00,VWS V14.01,2013-07-01 00:05:00,
2013-06-30 17:10:00,82.4,57.0,28.08,WSW,248,5.6,10.7,42,0.00,,---,0.00,VWS V14.01,2013-07-01 00:10:00,
2013-06-30 17:15:00,81.5,57.5,28.08,SSW,202,11.4,11.4,44,0.00,,---,0.00,VWS V14.01,2013-07-01 00:15:00,
2013-06-30 17:20:00,81.7,58.3,28.08,WSW,248,5.8,8.5,45,0.00,,---,0.00,VWS V14.01,2013-07-01 00:20:00,
2013-06-30 17:25:00,81.3,58.0,28.08,WSW,248,7.8,7.8,45,0.00,,---,0.00,VWS V14.01,2013-07-01 00:25:00,
2013-06-30 17:30:00,81.9,58.5,28.08,SSW,202,2.7,4.7,45,0.00,,---,0.00,VWS V14.01,2013-07-01 00:30:00,
2013-06-30 17:35:00,81.7,57.7,28.08,WSW,248,6.5,7.8,44,0.00,,---,0.00,VWS V14.01,2013-07-01 00:35:00,
2013-06-30 17:40:00,81.1,57.8,28.08,WSW,248,6.5,6.5,45,0.00,,---,0.00,VWS V14.01,2013-07-01 00:40:00,
2013-06-30 17:45:00,81.1,57.8,28.08,WSW,248,4.0,5.8,45,0.00,,---,0.00,VWS V14.01,2013-07-01 00:45:00,
2013-06-30 17:50:00,81.0,57.6,28.08,WSW,248,6.5,8.1,45,0.00,,---,0.00,VWS V14.01,2013-07-01 00:50:00,
2013-06-30 17:55:00,81.1,57.8,28.08,SW,225,8.7,8.7,45,0.00,,---,0.00,VWS V14.01,2013-07-01 00:55:00,
2013-06-30 18:00:00,82.4,58.3,28.08,WSW,248,0.0,1.6,44,0.00,,---,0.00,VWS V14.01,2013-07-01 01:00:00,
2013-06-30 18:05:00,83.5,58.7,28.08,SW,225,1.6,1.6,43,0.00,,---,0.00,VWS V14.01,2013-07-01 01:05:00,
2013-06-30 18:10:00,83.8,57.7,28.08,WSW,248,0.9,2.0,41,0.00,,---,0.00,VWS V14.01,2013-07-01 01:10:00,
2013-06-30 18:15:00,84.7,57.1,28.08,SSW,202,0.0,0.0,39,0.00,,---,0.00,VWS V14.01,2013-07-01 01:15:00,
2013-06-30 18:20:00,84.7,54.9,28.08,SSW,202,4.0,4.0,36,0.00,,---,0.00,VWS V14.01,2013-07-01 01:20:00,
2013-06-30 18:25:00,85.5,53.9,28.08,North,0,1.6,2.5,34,0.00,,---,0.00,VWS V14.01,2013-07-01 01:25:00,
2013-06-30 18:30:00,86.0,53.6,28.08,NW,315,2.2,3.1,33,0.00,,---,0.00,VWS V14.01,2013-07-01 01:30:00,
2013-06-30 18:35:00,85.3,51.2,28.08,WSW,248,4.0,4.7,31,0.00,,---,0.00,VWS V14.01,2013-07-01 01:35:00,
2013-06-30 18:40:00,84.9,50.9,28.08,WSW,248,4.3,7.4,31,0.00,,---,0.00,VWS V14.01,2013-07-01 01:40:00,
2013-06-30 18:45:00,85.6,51.6,28.08,SW,225,2.9,2.9,31,0.00,,---,0.00,VWS V14.01,2013-07-01 01:45:00,
2013-06-30 18:50:00,85.8,50.8,28.08,WNW,292,0.0,3.8,30,0.00,,---,0.00,VWS V14.01,2013-07-01 01:50:00,
2013-06-30 18:55:00,86.4,51.3,28.08,WSW,248,0.0,0.0,30,0.00,,---,0.00,VWS V14.01,2013-07-01 01:55:00,
2013-06-30 19:00:00,85.8,49.9,28.08,SW,225,3.8,3.8,29,0.00,,---,0.00,VWS V14.01,2013-07-01 02:00:00,
2013-06-30 19:05:00,85.1,51.1,28.08,WSW,248,3.8,3.8,31,0.00,,---,0.00,VWS V14.01,2013-07-01 02:05:00,
2013-06-30 19:10:00,84.4,50.5,28.08,WSW,248,4.7,7.4,31,0.00,,---,0.00,VWS V14.01,2013-07-01 02:10:00,
2013-06-30 19:15:00,83.8,50.0,28.08,SW,225,4.9,5.4,31,0.00,,---,0.00,VWS V14.01,2013-07-01 02:15:00,
2013-06-30 19:20:00,83.5,50.5,28.08,SW,225,4.9,6.3,32,0.00,,---,0.00,VWS V14.01,2013-07-01 02:20:00,
2013-06-30 19:25:00,83.1,51.1,28.08,WSW,248,5.4,5.4,33,0.00,,---,0.00,VWS V14.01,2013-07-01 02:25:00,
2013-06-30 19:30:00,82.8,50.8,28.11,SW,225,3.6,3.8,33,0.00,,---,0.00,VWS V14.01,2013-07-01 02:30:00,
2013-06-30 19:36:00,82.2,51.1,28.11,WSW,248,2.0,3.4,34,0.00,,---,0.00,VWS V14.01,2013-07-01 02:36:00,
2013-06-30 19:41:00,82.0,51.7,28.11,WSW,248,0.0,2.7,35,0.00,,---,0.00,VWS V14.01,2013-07-01 02:41:00,
2013-06-30 19:46:00,81.7,52.2,28.08,SW,225,0.0,2.2,36,0.00,,---,0.00,VWS V14.01,2013-07-01 02:46:00,
2013-06-30 19:51:00,81.3,52.6,28.08,SW,225,0.0,0.0,37,0.00,,---,0.00,VWS V14.01,2013-07-01 02:51:00,
2013-06-30 19:57:00,81.1,53.2,28.08,SW,225,0.0,0.0,38,0.00,,---,0.00,VWS V14.01,2013-07-01 02:57:00,
2013-06-30 20:03:00,80.8,52.1,28.08,SW,225,0.0,0.0,37,0.00,,---,0.00,VWS V14.01,2013-07-01 03:03:00,
2013-06-30 20:08:00,80.6,52.7,28.08,SW,225,0.0,0.0,38,0.00,,---,0.00,VWS V14.01,2013-07-01 03:08:00,
2013-06-30 20:13:00,80.2,53.1,28.08,SW,225,0.0,0.0,39,0.00,,---,0.00,VWS V14.01,2013-07-01 03:13:00,
2013-06-30 20:18:00,80.1,52.2,28.08,SW,225,0.0,0.0,38,0.00,,---,0.00,VWS V14.01,2013-07-01 03:18:00,
2013-06-30 20:23:00,79.9,53.4,28.08,SW,225,0.0,0.0,40,0.00,,---,0.00,VWS V14.01,2013-07-01 03:23:00,
2013-06-30 20:29:00,79.3,53.6,28.08,WSW,248,0.0,0.0,41,0.00,,---,0.00,VWS V14.01,2013-07-01 03:29:00,
2013-06-30 20:34:00,79.0,53.3,28.08,WSW,248,0.0,0.0,41,0.00,,---,0.00,VWS V14.01,2013-07-01 03:34:00,
2013-06-30 20:39:00,78.8,53.8,28.08,WSW,248,0.0,0.0,42,0.00,,---,0.00,VWS V14.01,2013-07-01 03:39:00,
2013-06-30 20:44:00,78.4,53.5,28.08,South,180,0.0,0.0,42,0.00,,---,0.00,VWS V14.01,2013-07-01 03:44:00,
2013-06-30 20:49:00,78.1,53.2,28.08,South,180,0.0,0.0,42,0.00,,---,0.00,VWS V14.01,2013-07-01 03:49:00,
2013-06-30 20:54:00,77.7,53.5,28.08,South,180,0.0,0.0,43,0.00,,---,0.00,VWS V14.01,2013-07-01 03:54:00,
2013-06-30 21:00:00,77.4,53.8,28.08,South,180,0.0,0.0,44,0.00,,---,0.00,VWS V14.01,2013-07-01 04:00:00,
2013-06-30 21:01:00,77.4,53.1,28.08,South,180,0.0,0.0,43,0.00,,---,0.00,VWS V14.01,2013-07-01 04:01:00,
2013-06-30 21:05:00,77.2,53.0,28.08,South,180,0.0,0.0,43,0.00,,---,0.00,VWS V14.01,2013-07-01 04:05:00,
2013-06-30 21:06:00,77.2,53.0,28.08,South,180,0.0,0.0,43,0.00,,---,0.00,VWS V14.01,2013-07-01 04:06:00,
2013-06-30 21:08:00,77.2,53.6,28.08,South,180,0.0,0.0,44,0.00,,---,0.00,VWS V14.01,2013-07-01 04:08:00,
2013-06-30 21:09:00,77.0,53.4,28.08,South,180,0.0,0.0,44,0.00,,---,0.00,VWS V14.01,2013-07-01 04:09:00,
2013-06-30 21:14:00,77.0,53.4,28.08,South,180,0.0,0.0,44,0.00,,---,0.00,VWS V14.01,2013-07-01 04:14:00,
2013-06-30 21:19:00,76.8,53.9,28.11,South,180,0.0,0.0,45,0.00,,---,0.00,VWS V14.01,2013-07-01 04:19:00,
2013-06-30 21:24:00,76.8,54.5,28.11,NNW,338,0.0,0.0,46,0.00,,---,0.00,VWS V14.01,2013-07-01 04:24:00,
2013-06-30 21:29:00,76.8,54.5,28.11,NNW,338,0.0,0.0,46,0.00,,---,0.00,VWS V14.01,2013-07-01 04:29:00,
2013-06-30 21:35:00,76.6,54.9,28.14,NNW,338,0.0,0.0,47,0.00,,---,0.00,VWS V14.01,2013-07-01 04:35:00,
2013-06-30 21:41:00,76.3,54.0,28.14,WNW,292,0.0,0.0,46,0.00,,---,0.00,VWS V14.01,2013-07-01 04:41:00,
2013-06-30 21:46:00,76.3,54.6,28.14,WNW,292,0.0,0.0,47,0.00,,---,0.00,VWS V14.01,2013-07-01 04:46:00,
2013-06-30 21:51:00,76.5,55.3,28.14,WSW,248,0.0,2.5,48,0.00,,---,0.00,VWS V14.01,2013-07-01 04:51:00,
2013-06-30 21:56:00,76.6,56.6,28.14,WSW,248,1.6,2.9,50,0.00,,---,0.00,VWS V14.01,2013-07-01 04:56:00,
2013-06-30 22:02:00,76.6,57.2,28.14,WSW,248,2.5,2.5,51,0.00,,---,0.00,VWS V14.01,2013-07-01 05:02:00,
2013-06-30 22:07:00,76.5,56.5,28.14,WSW,248,0.0,0.0,50,0.00,,---,0.00,VWS V14.01,2013-07-01 05:07:00,
2013-06-30 22:12:00,76.3,56.3,28.14,West,270,0.0,0.0,50,0.00,,---,0.00,VWS V14.01,2013-07-01 05:12:00,
2013-06-30 22:17:00,76.1,56.1,28.11,WSW,248,0.0,0.0,50,0.00,,---,0.00,VWS V14.01,2013-07-01 05:17:00,
2013-06-30 22:22:00,75.9,56.0,28.11,WSW,248,0.0,0.0,50,0.00,,---,0.00,VWS V14.01,2013-07-01 05:22:00,
2013-06-30 22:27:00,75.7,57.4,28.11,WSW,248,0.0,3.1,53,0.00,,---,0.00,VWS V14.01,2013-07-01 05:27:00,
2013-06-30 22:32:00,75.4,56.5,28.14,SW,225,0.0,0.0,52,0.00,,---,0.00,VWS V14.01,2013-07-01 05:32:00,
2013-06-30 22:38:00,75.0,56.8,28.14,SW,225,0.0,0.0,53,0.00,,---,0.00,VWS V14.01,2013-07-01 05:38:00,
2013-06-30 22:43:00,74.8,56.6,28.14,SW,225,0.0,0.0,53,0.00,,---,0.00,VWS V14.01,2013-07-01 05:43:00,
2013-06-30 22:49:00,74.7,56.4,28.14,NNW,338,0.0,0.0,53,0.00,,---,0.00,VWS V14.01,2013-07-01 05:49:00,
2013-06-30 22:55:00,74.7,56.4,28.14,WSW,248,0.0,0.0,53,0.00,,---,0.00,VWS V14.01,2013-07-01 05:55:00,
2013-06-30 23:00:00,74.1,56.4,28.14,South,180,0.0,0.0,54,0.00,,---,0.00,VWS V14.01,2013-07-01 06:00:00,
2013-06-30 23:06:00,73.8,56.6,28.14,NNW,338,0.0,0.0,55,0.00,,---,0.00,VWS V14.01,2013-07-01 06:06:00,
2013-06-30 23:11:00,73.8,56.1,28.14,NNW,338,0.0,0.0,54,0.00,,---,0.00,VWS V14.01,2013-07-01 06:11:00,
2013-06-30 23:16:00,73.8,56.6,28.14,NNW,338,0.0,0.0,55,0.00,,---,0.00,VWS V14.01,2013-07-01 06:16:00,
2013-06-30 23:21:00,73.6,56.9,28.14,NNW,338,0.0,0.0,56,0.00,,---,0.00,VWS V14.01,2013-07-01 06:21:00,
2013-06-30 23:27:00,73.2,57.1,28.14,NNW,338,0.0,0.0,57,0.00,,---,0.00,VWS V14.01,2013-07-01 06:27:00,
2013-06-30 23:32:00,73.0,56.9,28.14,NNW,338,0.0,0.0,57,0.00,,---,0.00,VWS V14.01,2013-07-01 06:32:00,
2013-06-30 23:38:00,73.0,56.9,28.14,NNW,338,0.0,0.0,57,0.00,,---,0.00,VWS V14.01,2013-07-01 06:38:00,
2013-06-30 23:44:00,72.9,56.8,28.14,NNW,338,0.0,0.0,57,0.00,,---,0.00,VWS V14.01,2013-07-01 06:44:00,
2013-06-30 23:49:00,72.7,57.1,28.14,NNW,338,0.0,0.0,58,0.00,,---,0.00,VWS V14.01,2013-07-01 06:49:00,
2013-06-30 23:55:00,72.7,56.6,28.14,NNW,338,0.0,0.0,57,0.00,,---,0.00,VWS V14.01,2013-07-01 06:55:00,